<?xml version="1.0" encoding="UTF-8" standalone="no" ?>
<gpx xmlns="http://www.topografix.com/GPX/1/1" xmlns:xsi="http://www.w3.org/2001/XMLSchema-instance" xsi:schemaLocation="http://www.topografix.com/GPX/1/1 http://www.topografix.com/GPX/1/1/gpx.xsd" version="1.1" creator="VisuGPX - https://www.visugpx.com">
  <metadata>
    <name>Parcours 6Km contre la montre du jeudi soir</name>
    <desc><![CDATA[Parcours à distance fixe de 6Km en contre la montre dans le centre ville de Nantes. Ce parcours est emprunté par les FreeAthletes les jeudi soir en période d'hiver.

FreeAthletes est une association de pratique libre et gratuite du running et du sport en général.
Plus d'informations sur l'association sur :
[url]http://www.freeathletes.fr/[/url]]]></desc>
  </metadata>
  <wpt lat="47.21686" lon="-1.54555">
    <ele>8</ele>
    <name><![CDATA[Start]]></name>
  </wpt>
  <wpt lat="47.21723" lon="-1.54514">
    <ele>8</ele>
    <name><![CDATA[Lap 1]]></name>
    <desc><![CDATA[6.14km, 30:47, 12.0km/h]]></desc>
  </wpt>
  <trk>
    <name><![CDATA[Dec. 15 - ,]]></name>
    <desc><![CDATA[30:47 - 6.1km]]></desc>
    <trkseg>
      <trkpt lat="47.21686" lon="-1.54555">
        <ele>8</ele>
        <time>2016-12-15T18:43:43Z</time>
      </trkpt>
      <trkpt lat="47.21686" lon="-1.54556">
        <ele>8</ele>
        <time>2016-12-15T18:43:46Z</time>
      </trkpt>
      <trkpt lat="47.21686" lon="-1.54558">
        <ele>8</ele>
        <time>2016-12-15T18:43:49Z</time>
      </trkpt>
      <trkpt lat="47.21686" lon="-1.54559">
        <ele>8</ele>
        <time>2016-12-15T18:43:52Z</time>
      </trkpt>
      <trkpt lat="47.21686" lon="-1.54561">
        <ele>8</ele>
        <time>2016-12-15T18:43:55Z</time>
      </trkpt>
      <trkpt lat="47.21686" lon="-1.54562">
        <ele>8</ele>
        <time>2016-12-15T18:43:58Z</time>
      </trkpt>
      <trkpt lat="47.21684" lon="-1.54574">
        <ele>8</ele>
        <time>2016-12-15T18:44:01Z</time>
      </trkpt>
      <trkpt lat="47.21686" lon="-1.54586">
        <ele>11</ele>
        <time>2016-12-15T18:44:04Z</time>
      </trkpt>
      <trkpt lat="47.21692" lon="-1.54594">
        <ele>11</ele>
        <time>2016-12-15T18:44:07Z</time>
      </trkpt>
      <trkpt lat="47.21689" lon="-1.54604">
        <ele>11</ele>
        <time>2016-12-15T18:44:10Z</time>
      </trkpt>
      <trkpt lat="47.21686" lon="-1.54616">
        <ele>11</ele>
        <time>2016-12-15T18:44:14Z</time>
      </trkpt>
      <trkpt lat="47.21681" lon="-1.54625">
        <ele>11</ele>
        <time>2016-12-15T18:44:17Z</time>
      </trkpt>
      <trkpt lat="47.21678" lon="-1.54636">
        <ele>11</ele>
        <time>2016-12-15T18:44:20Z</time>
      </trkpt>
      <trkpt lat="47.21675" lon="-1.54647">
        <ele>11</ele>
        <time>2016-12-15T18:44:23Z</time>
      </trkpt>
      <trkpt lat="47.21673" lon="-1.54656">
        <ele>11</ele>
        <time>2016-12-15T18:44:26Z</time>
      </trkpt>
      <trkpt lat="47.21671" lon="-1.5466">
        <ele>10</ele>
        <time>2016-12-15T18:44:29Z</time>
      </trkpt>
      <trkpt lat="47.21666" lon="-1.54669">
        <ele>10</ele>
        <time>2016-12-15T18:44:32Z</time>
      </trkpt>
      <trkpt lat="47.21662" lon="-1.54673">
        <ele>10</ele>
        <time>2016-12-15T18:44:35Z</time>
      </trkpt>
      <trkpt lat="47.21658" lon="-1.54675">
        <ele>9</ele>
        <time>2016-12-15T18:44:38Z</time>
      </trkpt>
      <trkpt lat="47.21653" lon="-1.54667">
        <ele>9</ele>
        <time>2016-12-15T18:44:41Z</time>
      </trkpt>
      <trkpt lat="47.21651" lon="-1.54657">
        <ele>8</ele>
        <time>2016-12-15T18:44:44Z</time>
      </trkpt>
      <trkpt lat="47.21652" lon="-1.54645">
        <ele>8</ele>
        <time>2016-12-15T18:44:47Z</time>
      </trkpt>
      <trkpt lat="47.21653" lon="-1.54634">
        <ele>8</ele>
        <time>2016-12-15T18:44:50Z</time>
      </trkpt>
      <trkpt lat="47.2165" lon="-1.5463">
        <ele>8</ele>
        <time>2016-12-15T18:44:53Z</time>
      </trkpt>
      <trkpt lat="47.21642" lon="-1.54633">
        <ele>8</ele>
        <time>2016-12-15T18:44:56Z</time>
      </trkpt>
      <trkpt lat="47.21637" lon="-1.54642">
        <ele>8</ele>
        <time>2016-12-15T18:44:59Z</time>
      </trkpt>
      <trkpt lat="47.21632" lon="-1.54651">
        <ele>9</ele>
        <time>2016-12-15T18:45:02Z</time>
      </trkpt>
      <trkpt lat="47.21626" lon="-1.5466">
        <ele>9</ele>
        <time>2016-12-15T18:45:05Z</time>
      </trkpt>
      <trkpt lat="47.21624" lon="-1.54666">
        <ele>9</ele>
        <time>2016-12-15T18:45:08Z</time>
      </trkpt>
      <trkpt lat="47.2162" lon="-1.54668">
        <ele>9</ele>
        <time>2016-12-15T18:45:11Z</time>
      </trkpt>
      <trkpt lat="47.21616" lon="-1.54663">
        <ele>8</ele>
        <time>2016-12-15T18:45:14Z</time>
      </trkpt>
      <trkpt lat="47.21614" lon="-1.5466">
        <ele>8</ele>
        <time>2016-12-15T18:45:17Z</time>
      </trkpt>
      <trkpt lat="47.21613" lon="-1.54652">
        <ele>8</ele>
        <time>2016-12-15T18:45:20Z</time>
      </trkpt>
      <trkpt lat="47.21613" lon="-1.54648">
        <ele>8</ele>
        <time>2016-12-15T18:45:23Z</time>
      </trkpt>
      <trkpt lat="47.2161" lon="-1.54639">
        <ele>8</ele>
        <time>2016-12-15T18:45:26Z</time>
      </trkpt>
      <trkpt lat="47.21607" lon="-1.54631">
        <ele>8</ele>
        <time>2016-12-15T18:45:29Z</time>
      </trkpt>
      <trkpt lat="47.21605" lon="-1.54622">
        <ele>8</ele>
        <time>2016-12-15T18:45:32Z</time>
      </trkpt>
      <trkpt lat="47.216" lon="-1.54611">
        <ele>8</ele>
        <time>2016-12-15T18:45:35Z</time>
      </trkpt>
      <trkpt lat="47.21593" lon="-1.54603">
        <ele>9</ele>
        <time>2016-12-15T18:45:38Z</time>
      </trkpt>
      <trkpt lat="47.2159" lon="-1.54598">
        <ele>9</ele>
        <time>2016-12-15T18:45:41Z</time>
      </trkpt>
      <trkpt lat="47.21589" lon="-1.54592">
        <ele>9</ele>
        <time>2016-12-15T18:45:44Z</time>
      </trkpt>
      <trkpt lat="47.21583" lon="-1.5458">
        <ele>10</ele>
        <time>2016-12-15T18:45:47Z</time>
      </trkpt>
      <trkpt lat="47.21579" lon="-1.54567">
        <ele>10</ele>
        <time>2016-12-15T18:45:50Z</time>
      </trkpt>
      <trkpt lat="47.21579" lon="-1.5455">
        <ele>10</ele>
        <time>2016-12-15T18:45:53Z</time>
      </trkpt>
      <trkpt lat="47.21576" lon="-1.54538">
        <ele>11</ele>
        <time>2016-12-15T18:45:56Z</time>
      </trkpt>
      <trkpt lat="47.21569" lon="-1.5452">
        <ele>11</ele>
        <time>2016-12-15T18:46:00Z</time>
      </trkpt>
      <trkpt lat="47.21563" lon="-1.54509">
        <ele>11</ele>
        <time>2016-12-15T18:46:03Z</time>
      </trkpt>
      <trkpt lat="47.21556" lon="-1.545">
        <ele>11</ele>
        <time>2016-12-15T18:46:06Z</time>
      </trkpt>
      <trkpt lat="47.2155" lon="-1.54492">
        <ele>12</ele>
        <time>2016-12-15T18:46:09Z</time>
      </trkpt>
      <trkpt lat="47.21545" lon="-1.54484">
        <ele>12</ele>
        <time>2016-12-15T18:46:12Z</time>
      </trkpt>
      <trkpt lat="47.21541" lon="-1.54477">
        <ele>12</ele>
        <time>2016-12-15T18:46:15Z</time>
      </trkpt>
      <trkpt lat="47.21535" lon="-1.54471">
        <ele>12</ele>
        <time>2016-12-15T18:46:18Z</time>
      </trkpt>
      <trkpt lat="47.21529" lon="-1.54464">
        <ele>12</ele>
        <time>2016-12-15T18:46:21Z</time>
      </trkpt>
      <trkpt lat="47.21523" lon="-1.54456">
        <ele>12</ele>
        <time>2016-12-15T18:46:24Z</time>
      </trkpt>
      <trkpt lat="47.21517" lon="-1.54446">
        <ele>12</ele>
        <time>2016-12-15T18:46:27Z</time>
      </trkpt>
      <trkpt lat="47.21511" lon="-1.54437">
        <ele>12</ele>
        <time>2016-12-15T18:46:30Z</time>
      </trkpt>
      <trkpt lat="47.21502" lon="-1.54426">
        <ele>12</ele>
        <time>2016-12-15T18:46:33Z</time>
      </trkpt>
      <trkpt lat="47.21494" lon="-1.54416">
        <ele>12</ele>
        <time>2016-12-15T18:46:36Z</time>
      </trkpt>
      <trkpt lat="47.21486" lon="-1.5441">
        <ele>12</ele>
        <time>2016-12-15T18:46:39Z</time>
      </trkpt>
      <trkpt lat="47.21479" lon="-1.54401">
        <ele>11</ele>
        <time>2016-12-15T18:46:42Z</time>
      </trkpt>
      <trkpt lat="47.21472" lon="-1.54392">
        <ele>11</ele>
        <time>2016-12-15T18:46:45Z</time>
      </trkpt>
      <trkpt lat="47.21464" lon="-1.54381">
        <ele>11</ele>
        <time>2016-12-15T18:46:48Z</time>
      </trkpt>
      <trkpt lat="47.21455" lon="-1.54369">
        <ele>11</ele>
        <time>2016-12-15T18:46:51Z</time>
      </trkpt>
      <trkpt lat="47.21449" lon="-1.54362">
        <ele>11</ele>
        <time>2016-12-15T18:46:54Z</time>
      </trkpt>
      <trkpt lat="47.21437" lon="-1.54348">
        <ele>10</ele>
        <time>2016-12-15T18:46:57Z</time>
      </trkpt>
      <trkpt lat="47.2143" lon="-1.54337">
        <ele>9</ele>
        <time>2016-12-15T18:47:00Z</time>
      </trkpt>
      <trkpt lat="47.21423" lon="-1.54325">
        <ele>9</ele>
        <time>2016-12-15T18:47:03Z</time>
      </trkpt>
      <trkpt lat="47.21414" lon="-1.54315">
        <ele>8</ele>
        <time>2016-12-15T18:47:06Z</time>
      </trkpt>
      <trkpt lat="47.21407" lon="-1.54306">
        <ele>8</ele>
        <time>2016-12-15T18:47:09Z</time>
      </trkpt>
      <trkpt lat="47.214" lon="-1.54297">
        <ele>8</ele>
        <time>2016-12-15T18:47:12Z</time>
      </trkpt>
      <trkpt lat="47.21393" lon="-1.54288">
        <ele>8</ele>
        <time>2016-12-15T18:47:15Z</time>
      </trkpt>
      <trkpt lat="47.21387" lon="-1.54278">
        <ele>8</ele>
        <time>2016-12-15T18:47:18Z</time>
      </trkpt>
      <trkpt lat="47.2138" lon="-1.5427">
        <ele>8</ele>
        <time>2016-12-15T18:47:21Z</time>
      </trkpt>
      <trkpt lat="47.21373" lon="-1.54261">
        <ele>8</ele>
        <time>2016-12-15T18:47:24Z</time>
      </trkpt>
      <trkpt lat="47.21365" lon="-1.54252">
        <ele>8</ele>
        <time>2016-12-15T18:47:27Z</time>
      </trkpt>
      <trkpt lat="47.21357" lon="-1.54244">
        <ele>9</ele>
        <time>2016-12-15T18:47:30Z</time>
      </trkpt>
      <trkpt lat="47.21348" lon="-1.54236">
        <ele>9</ele>
        <time>2016-12-15T18:47:33Z</time>
      </trkpt>
      <trkpt lat="47.21339" lon="-1.5423">
        <ele>9</ele>
        <time>2016-12-15T18:47:36Z</time>
      </trkpt>
      <trkpt lat="47.21331" lon="-1.54223">
        <ele>9</ele>
        <time>2016-12-15T18:47:39Z</time>
      </trkpt>
      <trkpt lat="47.21326" lon="-1.54213">
        <ele>9</ele>
        <time>2016-12-15T18:47:42Z</time>
      </trkpt>
      <trkpt lat="47.2132" lon="-1.54203">
        <ele>9</ele>
        <time>2016-12-15T18:47:45Z</time>
      </trkpt>
      <trkpt lat="47.21312" lon="-1.54195">
        <ele>9</ele>
        <time>2016-12-15T18:47:48Z</time>
      </trkpt>
      <trkpt lat="47.21304" lon="-1.54185">
        <ele>9</ele>
        <time>2016-12-15T18:47:51Z</time>
      </trkpt>
      <trkpt lat="47.21297" lon="-1.54176">
        <ele>10</ele>
        <time>2016-12-15T18:47:54Z</time>
      </trkpt>
      <trkpt lat="47.2129" lon="-1.54167">
        <ele>10</ele>
        <time>2016-12-15T18:47:57Z</time>
      </trkpt>
      <trkpt lat="47.21284" lon="-1.54159">
        <ele>10</ele>
        <time>2016-12-15T18:48:00Z</time>
      </trkpt>
      <trkpt lat="47.21277" lon="-1.54148">
        <ele>10</ele>
        <time>2016-12-15T18:48:03Z</time>
      </trkpt>
      <trkpt lat="47.2127" lon="-1.54138">
        <ele>10</ele>
        <time>2016-12-15T18:48:06Z</time>
      </trkpt>
      <trkpt lat="47.21264" lon="-1.54128">
        <ele>10</ele>
        <time>2016-12-15T18:48:09Z</time>
      </trkpt>
      <trkpt lat="47.21257" lon="-1.54117">
        <ele>10</ele>
        <time>2016-12-15T18:48:12Z</time>
      </trkpt>
      <trkpt lat="47.21253" lon="-1.54108">
        <ele>11</ele>
        <time>2016-12-15T18:48:15Z</time>
      </trkpt>
      <trkpt lat="47.21245" lon="-1.541">
        <ele>12</ele>
        <time>2016-12-15T18:48:18Z</time>
      </trkpt>
      <trkpt lat="47.21239" lon="-1.54091">
        <ele>13</ele>
        <time>2016-12-15T18:48:21Z</time>
      </trkpt>
      <trkpt lat="47.21235" lon="-1.54086">
        <ele>13</ele>
        <time>2016-12-15T18:48:24Z</time>
      </trkpt>
      <trkpt lat="47.21232" lon="-1.54082">
        <ele>13</ele>
        <time>2016-12-15T18:48:27Z</time>
      </trkpt>
      <trkpt lat="47.21229" lon="-1.54077">
        <ele>13</ele>
        <time>2016-12-15T18:48:30Z</time>
      </trkpt>
      <trkpt lat="47.21225" lon="-1.54073">
        <ele>13</ele>
        <time>2016-12-15T18:48:33Z</time>
      </trkpt>
      <trkpt lat="47.21209" lon="-1.54052">
        <ele>12</ele>
        <time>2016-12-15T18:48:36Z</time>
      </trkpt>
      <trkpt lat="47.212" lon="-1.54045">
        <ele>12</ele>
        <time>2016-12-15T18:48:39Z</time>
      </trkpt>
      <trkpt lat="47.21191" lon="-1.54038">
        <ele>12</ele>
        <time>2016-12-15T18:48:42Z</time>
      </trkpt>
      <trkpt lat="47.21183" lon="-1.54036">
        <ele>12</ele>
        <time>2016-12-15T18:48:45Z</time>
      </trkpt>
      <trkpt lat="47.21175" lon="-1.54044">
        <ele>11</ele>
        <time>2016-12-15T18:48:48Z</time>
      </trkpt>
      <trkpt lat="47.21169" lon="-1.54056">
        <ele>11</ele>
        <time>2016-12-15T18:48:51Z</time>
      </trkpt>
      <trkpt lat="47.21164" lon="-1.54069">
        <ele>10</ele>
        <time>2016-12-15T18:48:54Z</time>
      </trkpt>
      <trkpt lat="47.2116" lon="-1.54081">
        <ele>10</ele>
        <time>2016-12-15T18:48:57Z</time>
      </trkpt>
      <trkpt lat="47.21155" lon="-1.54092">
        <ele>9</ele>
        <time>2016-12-15T18:49:00Z</time>
      </trkpt>
      <trkpt lat="47.21149" lon="-1.54103">
        <ele>9</ele>
        <time>2016-12-15T18:49:03Z</time>
      </trkpt>
      <trkpt lat="47.21143" lon="-1.54113">
        <ele>9</ele>
        <time>2016-12-15T18:49:06Z</time>
      </trkpt>
      <trkpt lat="47.2114" lon="-1.54124">
        <ele>9</ele>
        <time>2016-12-15T18:49:09Z</time>
      </trkpt>
      <trkpt lat="47.21133" lon="-1.54136">
        <ele>9</ele>
        <time>2016-12-15T18:49:12Z</time>
      </trkpt>
      <trkpt lat="47.21128" lon="-1.54151">
        <ele>8</ele>
        <time>2016-12-15T18:49:15Z</time>
      </trkpt>
      <trkpt lat="47.21124" lon="-1.54164">
        <ele>8</ele>
        <time>2016-12-15T18:49:18Z</time>
      </trkpt>
      <trkpt lat="47.21119" lon="-1.54176">
        <ele>7</ele>
        <time>2016-12-15T18:49:21Z</time>
      </trkpt>
      <trkpt lat="47.21111" lon="-1.54189">
        <ele>7</ele>
        <time>2016-12-15T18:49:24Z</time>
      </trkpt>
      <trkpt lat="47.21107" lon="-1.54204">
        <ele>6</ele>
        <time>2016-12-15T18:49:27Z</time>
      </trkpt>
      <trkpt lat="47.21103" lon="-1.54218">
        <ele>6</ele>
        <time>2016-12-15T18:49:30Z</time>
      </trkpt>
      <trkpt lat="47.21095" lon="-1.54233">
        <ele>5</ele>
        <time>2016-12-15T18:49:34Z</time>
      </trkpt>
      <trkpt lat="47.21093" lon="-1.54243">
        <ele>5</ele>
        <time>2016-12-15T18:49:37Z</time>
      </trkpt>
      <trkpt lat="47.21096" lon="-1.54248">
        <ele>5</ele>
        <time>2016-12-15T18:49:40Z</time>
      </trkpt>
      <trkpt lat="47.21094" lon="-1.54256">
        <ele>6</ele>
        <time>2016-12-15T18:49:43Z</time>
      </trkpt>
      <trkpt lat="47.21091" lon="-1.54263">
        <ele>5</ele>
        <time>2016-12-15T18:49:46Z</time>
      </trkpt>
      <trkpt lat="47.21084" lon="-1.54274">
        <ele>5</ele>
        <time>2016-12-15T18:49:49Z</time>
      </trkpt>
      <trkpt lat="47.21074" lon="-1.54289">
        <ele>6</ele>
        <time>2016-12-15T18:49:52Z</time>
      </trkpt>
      <trkpt lat="47.21068" lon="-1.54306">
        <ele>6</ele>
        <time>2016-12-15T18:49:55Z</time>
      </trkpt>
      <trkpt lat="47.21063" lon="-1.5432">
        <ele>6</ele>
        <time>2016-12-15T18:49:58Z</time>
      </trkpt>
      <trkpt lat="47.21057" lon="-1.54334">
        <ele>6</ele>
        <time>2016-12-15T18:50:01Z</time>
      </trkpt>
      <trkpt lat="47.21053" lon="-1.54348">
        <ele>6</ele>
        <time>2016-12-15T18:50:04Z</time>
      </trkpt>
      <trkpt lat="47.21048" lon="-1.54362">
        <ele>7</ele>
        <time>2016-12-15T18:50:07Z</time>
      </trkpt>
      <trkpt lat="47.21045" lon="-1.54376">
        <ele>7</ele>
        <time>2016-12-15T18:50:10Z</time>
      </trkpt>
      <trkpt lat="47.21041" lon="-1.54389">
        <ele>7</ele>
        <time>2016-12-15T18:50:13Z</time>
      </trkpt>
      <trkpt lat="47.21035" lon="-1.54391">
        <ele>7</ele>
        <time>2016-12-15T18:50:16Z</time>
      </trkpt>
      <trkpt lat="47.21031" lon="-1.54398">
        <ele>7</ele>
        <time>2016-12-15T18:50:19Z</time>
      </trkpt>
      <trkpt lat="47.21027" lon="-1.54411">
        <ele>6</ele>
        <time>2016-12-15T18:50:22Z</time>
      </trkpt>
      <trkpt lat="47.21024" lon="-1.54424">
        <ele>5</ele>
        <time>2016-12-15T18:50:25Z</time>
      </trkpt>
      <trkpt lat="47.2102" lon="-1.54436">
        <ele>4</ele>
        <time>2016-12-15T18:50:28Z</time>
      </trkpt>
      <trkpt lat="47.21016" lon="-1.5445">
        <ele>3</ele>
        <time>2016-12-15T18:50:31Z</time>
      </trkpt>
      <trkpt lat="47.21012" lon="-1.54463">
        <ele>3</ele>
        <time>2016-12-15T18:50:34Z</time>
      </trkpt>
      <trkpt lat="47.21008" lon="-1.54477">
        <ele>3</ele>
        <time>2016-12-15T18:50:37Z</time>
      </trkpt>
      <trkpt lat="47.21003" lon="-1.5449">
        <ele>3</ele>
        <time>2016-12-15T18:50:40Z</time>
      </trkpt>
      <trkpt lat="47.20998" lon="-1.54503">
        <ele>3</ele>
        <time>2016-12-15T18:50:43Z</time>
      </trkpt>
      <trkpt lat="47.20993" lon="-1.54518">
        <ele>3</ele>
        <time>2016-12-15T18:50:46Z</time>
      </trkpt>
      <trkpt lat="47.20987" lon="-1.54533">
        <ele>3</ele>
        <time>2016-12-15T18:50:49Z</time>
      </trkpt>
      <trkpt lat="47.20982" lon="-1.54545">
        <ele>2</ele>
        <time>2016-12-15T18:50:52Z</time>
      </trkpt>
      <trkpt lat="47.20978" lon="-1.54558">
        <ele>2</ele>
        <time>2016-12-15T18:50:55Z</time>
      </trkpt>
      <trkpt lat="47.20975" lon="-1.54572">
        <ele>2</ele>
        <time>2016-12-15T18:50:58Z</time>
      </trkpt>
      <trkpt lat="47.20972" lon="-1.54583">
        <ele>2</ele>
        <time>2016-12-15T18:51:01Z</time>
      </trkpt>
      <trkpt lat="47.20968" lon="-1.54596">
        <ele>2</ele>
        <time>2016-12-15T18:51:04Z</time>
      </trkpt>
      <trkpt lat="47.20967" lon="-1.54609">
        <ele>11</ele>
        <time>2016-12-15T18:51:07Z</time>
      </trkpt>
      <trkpt lat="47.20963" lon="-1.54622">
        <ele>11</ele>
        <time>2016-12-15T18:51:10Z</time>
      </trkpt>
      <trkpt lat="47.20959" lon="-1.54636">
        <ele>11</ele>
        <time>2016-12-15T18:51:13Z</time>
      </trkpt>
      <trkpt lat="47.20954" lon="-1.54649">
        <ele>10</ele>
        <time>2016-12-15T18:51:16Z</time>
      </trkpt>
      <trkpt lat="47.20948" lon="-1.54666">
        <ele>10</ele>
        <time>2016-12-15T18:51:20Z</time>
      </trkpt>
      <trkpt lat="47.20944" lon="-1.54678">
        <ele>10</ele>
        <time>2016-12-15T18:51:23Z</time>
      </trkpt>
      <trkpt lat="47.20939" lon="-1.54691">
        <ele>10</ele>
        <time>2016-12-15T18:51:26Z</time>
      </trkpt>
      <trkpt lat="47.20936" lon="-1.54704">
        <ele>10</ele>
        <time>2016-12-15T18:51:29Z</time>
      </trkpt>
      <trkpt lat="47.20931" lon="-1.54715">
        <ele>10</ele>
        <time>2016-12-15T18:51:32Z</time>
      </trkpt>
      <trkpt lat="47.20926" lon="-1.54727">
        <ele>9</ele>
        <time>2016-12-15T18:51:35Z</time>
      </trkpt>
      <trkpt lat="47.20921" lon="-1.54741">
        <ele>9</ele>
        <time>2016-12-15T18:51:38Z</time>
      </trkpt>
      <trkpt lat="47.20917" lon="-1.54755">
        <ele>9</ele>
        <time>2016-12-15T18:51:41Z</time>
      </trkpt>
      <trkpt lat="47.20913" lon="-1.54766">
        <ele>8</ele>
        <time>2016-12-15T18:51:44Z</time>
      </trkpt>
      <trkpt lat="47.20909" lon="-1.54779">
        <ele>7</ele>
        <time>2016-12-15T18:51:47Z</time>
      </trkpt>
      <trkpt lat="47.20905" lon="-1.54793">
        <ele>6</ele>
        <time>2016-12-15T18:51:50Z</time>
      </trkpt>
      <trkpt lat="47.20903" lon="-1.54805">
        <ele>6</ele>
        <time>2016-12-15T18:51:53Z</time>
      </trkpt>
      <trkpt lat="47.20899" lon="-1.54816">
        <ele>5</ele>
        <time>2016-12-15T18:51:56Z</time>
      </trkpt>
      <trkpt lat="47.20895" lon="-1.5483">
        <ele>5</ele>
        <time>2016-12-15T18:51:59Z</time>
      </trkpt>
      <trkpt lat="47.2089" lon="-1.54844">
        <ele>4</ele>
        <time>2016-12-15T18:52:02Z</time>
      </trkpt>
      <trkpt lat="47.20888" lon="-1.54856">
        <ele>3</ele>
        <time>2016-12-15T18:52:05Z</time>
      </trkpt>
      <trkpt lat="47.20885" lon="-1.54869">
        <ele>3</ele>
        <time>2016-12-15T18:52:08Z</time>
      </trkpt>
      <trkpt lat="47.20884" lon="-1.54882">
        <ele>2</ele>
        <time>2016-12-15T18:52:11Z</time>
      </trkpt>
      <trkpt lat="47.20881" lon="-1.54894">
        <ele>1</ele>
        <time>2016-12-15T18:52:14Z</time>
      </trkpt>
      <trkpt lat="47.20878" lon="-1.54906">
        <ele>1</ele>
        <time>2016-12-15T18:52:17Z</time>
      </trkpt>
      <trkpt lat="47.20874" lon="-1.54917">
        <ele>6.5</ele>
        <time>2016-12-15T18:52:20Z</time>
      </trkpt>
      <trkpt lat="47.20871" lon="-1.54928">
        <ele>6.9</ele>
        <time>2016-12-15T18:52:23Z</time>
      </trkpt>
      <trkpt lat="47.20867" lon="-1.54941">
        <ele>7.6</ele>
        <time>2016-12-15T18:52:26Z</time>
      </trkpt>
      <trkpt lat="47.2086" lon="-1.54946">
        <ele>8</ele>
        <time>2016-12-15T18:52:29Z</time>
      </trkpt>
      <trkpt lat="47.20849" lon="-1.5494">
        <ele>1</ele>
        <time>2016-12-15T18:52:32Z</time>
      </trkpt>
      <trkpt lat="47.20841" lon="-1.54938">
        <ele>2</ele>
        <time>2016-12-15T18:52:35Z</time>
      </trkpt>
      <trkpt lat="47.2083" lon="-1.54932">
        <ele>4</ele>
        <time>2016-12-15T18:52:38Z</time>
      </trkpt>
      <trkpt lat="47.20821" lon="-1.54924">
        <ele>5</ele>
        <time>2016-12-15T18:52:41Z</time>
      </trkpt>
      <trkpt lat="47.20812" lon="-1.54917">
        <ele>6</ele>
        <time>2016-12-15T18:52:44Z</time>
      </trkpt>
      <trkpt lat="47.20804" lon="-1.5491">
        <ele>6</ele>
        <time>2016-12-15T18:52:47Z</time>
      </trkpt>
      <trkpt lat="47.20795" lon="-1.54903">
        <ele>7</ele>
        <time>2016-12-15T18:52:50Z</time>
      </trkpt>
      <trkpt lat="47.20787" lon="-1.54898">
        <ele>8</ele>
        <time>2016-12-15T18:52:53Z</time>
      </trkpt>
      <trkpt lat="47.20779" lon="-1.54891">
        <ele>8</ele>
        <time>2016-12-15T18:52:56Z</time>
      </trkpt>
      <trkpt lat="47.20768" lon="-1.54885">
        <ele>8</ele>
        <time>2016-12-15T18:53:00Z</time>
      </trkpt>
      <trkpt lat="47.20759" lon="-1.54878">
        <ele>9</ele>
        <time>2016-12-15T18:53:03Z</time>
      </trkpt>
      <trkpt lat="47.20751" lon="-1.54872">
        <ele>9</ele>
        <time>2016-12-15T18:53:06Z</time>
      </trkpt>
      <trkpt lat="47.20742" lon="-1.54864">
        <ele>9</ele>
        <time>2016-12-15T18:53:09Z</time>
      </trkpt>
      <trkpt lat="47.20732" lon="-1.54858">
        <ele>10</ele>
        <time>2016-12-15T18:53:12Z</time>
      </trkpt>
      <trkpt lat="47.20724" lon="-1.54849">
        <ele>10</ele>
        <time>2016-12-15T18:53:15Z</time>
      </trkpt>
      <trkpt lat="47.20717" lon="-1.54839">
        <ele>11</ele>
        <time>2016-12-15T18:53:18Z</time>
      </trkpt>
      <trkpt lat="47.2071" lon="-1.5483">
        <ele>10</ele>
        <time>2016-12-15T18:53:21Z</time>
      </trkpt>
      <trkpt lat="47.20708" lon="-1.54815">
        <ele>10</ele>
        <time>2016-12-15T18:53:24Z</time>
      </trkpt>
      <trkpt lat="47.2071" lon="-1.54803">
        <ele>10</ele>
        <time>2016-12-15T18:53:27Z</time>
      </trkpt>
      <trkpt lat="47.20713" lon="-1.54788">
        <ele>10</ele>
        <time>2016-12-15T18:53:30Z</time>
      </trkpt>
      <trkpt lat="47.20717" lon="-1.54777">
        <ele>10</ele>
        <time>2016-12-15T18:53:33Z</time>
      </trkpt>
      <trkpt lat="47.20717" lon="-1.54764">
        <ele>10</ele>
        <time>2016-12-15T18:53:36Z</time>
      </trkpt>
      <trkpt lat="47.20721" lon="-1.54749">
        <ele>10</ele>
        <time>2016-12-15T18:53:39Z</time>
      </trkpt>
      <trkpt lat="47.20724" lon="-1.54734">
        <ele>9</ele>
        <time>2016-12-15T18:53:42Z</time>
      </trkpt>
      <trkpt lat="47.20727" lon="-1.5472">
        <ele>9</ele>
        <time>2016-12-15T18:53:45Z</time>
      </trkpt>
      <trkpt lat="47.20731" lon="-1.54708">
        <ele>9</ele>
        <time>2016-12-15T18:53:48Z</time>
      </trkpt>
      <trkpt lat="47.20737" lon="-1.54696">
        <ele>8</ele>
        <time>2016-12-15T18:53:51Z</time>
      </trkpt>
      <trkpt lat="47.2074" lon="-1.54684">
        <ele>8</ele>
        <time>2016-12-15T18:53:54Z</time>
      </trkpt>
      <trkpt lat="47.20743" lon="-1.54673">
        <ele>8</ele>
        <time>2016-12-15T18:53:57Z</time>
      </trkpt>
      <trkpt lat="47.20747" lon="-1.54661">
        <ele>8</ele>
        <time>2016-12-15T18:54:00Z</time>
      </trkpt>
      <trkpt lat="47.20754" lon="-1.54649">
        <ele>8</ele>
        <time>2016-12-15T18:54:03Z</time>
      </trkpt>
      <trkpt lat="47.20757" lon="-1.54634">
        <ele>9</ele>
        <time>2016-12-15T18:54:06Z</time>
      </trkpt>
      <trkpt lat="47.20762" lon="-1.54622">
        <ele>9</ele>
        <time>2016-12-15T18:54:09Z</time>
      </trkpt>
      <trkpt lat="47.20767" lon="-1.54611">
        <ele>9</ele>
        <time>2016-12-15T18:54:12Z</time>
      </trkpt>
      <trkpt lat="47.20772" lon="-1.54598">
        <ele>9</ele>
        <time>2016-12-15T18:54:15Z</time>
      </trkpt>
      <trkpt lat="47.20776" lon="-1.54584">
        <ele>9</ele>
        <time>2016-12-15T18:54:18Z</time>
      </trkpt>
      <trkpt lat="47.2078" lon="-1.5457">
        <ele>10</ele>
        <time>2016-12-15T18:54:21Z</time>
      </trkpt>
      <trkpt lat="47.20784" lon="-1.54557">
        <ele>10</ele>
        <time>2016-12-15T18:54:24Z</time>
      </trkpt>
      <trkpt lat="47.20787" lon="-1.54546">
        <ele>10</ele>
        <time>2016-12-15T18:54:27Z</time>
      </trkpt>
      <trkpt lat="47.20793" lon="-1.54534">
        <ele>10</ele>
        <time>2016-12-15T18:54:30Z</time>
      </trkpt>
      <trkpt lat="47.20798" lon="-1.54521">
        <ele>10</ele>
        <time>2016-12-15T18:54:33Z</time>
      </trkpt>
      <trkpt lat="47.208" lon="-1.54509">
        <ele>10</ele>
        <time>2016-12-15T18:54:36Z</time>
      </trkpt>
      <trkpt lat="47.20802" lon="-1.54495">
        <ele>10</ele>
        <time>2016-12-15T18:54:39Z</time>
      </trkpt>
      <trkpt lat="47.20808" lon="-1.54481">
        <ele>10</ele>
        <time>2016-12-15T18:54:42Z</time>
      </trkpt>
      <trkpt lat="47.20812" lon="-1.54466">
        <ele>10</ele>
        <time>2016-12-15T18:54:45Z</time>
      </trkpt>
      <trkpt lat="47.20815" lon="-1.54453">
        <ele>10</ele>
        <time>2016-12-15T18:54:48Z</time>
      </trkpt>
      <trkpt lat="47.20818" lon="-1.54439">
        <ele>10</ele>
        <time>2016-12-15T18:54:51Z</time>
      </trkpt>
      <trkpt lat="47.20822" lon="-1.54427">
        <ele>9</ele>
        <time>2016-12-15T18:54:54Z</time>
      </trkpt>
      <trkpt lat="47.20827" lon="-1.54414">
        <ele>9</ele>
        <time>2016-12-15T18:54:57Z</time>
      </trkpt>
      <trkpt lat="47.20831" lon="-1.54401">
        <ele>9</ele>
        <time>2016-12-15T18:55:00Z</time>
      </trkpt>
      <trkpt lat="47.20836" lon="-1.54391">
        <ele>9</ele>
        <time>2016-12-15T18:55:03Z</time>
      </trkpt>
      <trkpt lat="47.2084" lon="-1.54382">
        <ele>9</ele>
        <time>2016-12-15T18:55:06Z</time>
      </trkpt>
      <trkpt lat="47.20846" lon="-1.54376">
        <ele>9</ele>
        <time>2016-12-15T18:55:09Z</time>
      </trkpt>
      <trkpt lat="47.20853" lon="-1.54369">
        <ele>9</ele>
        <time>2016-12-15T18:55:12Z</time>
      </trkpt>
      <trkpt lat="47.2086" lon="-1.54358">
        <ele>8</ele>
        <time>2016-12-15T18:55:15Z</time>
      </trkpt>
      <trkpt lat="47.20866" lon="-1.54346">
        <ele>8</ele>
        <time>2016-12-15T18:55:18Z</time>
      </trkpt>
      <trkpt lat="47.20869" lon="-1.54332">
        <ele>8</ele>
        <time>2016-12-15T18:55:21Z</time>
      </trkpt>
      <trkpt lat="47.2087" lon="-1.54319">
        <ele>7</ele>
        <time>2016-12-15T18:55:24Z</time>
      </trkpt>
      <trkpt lat="47.20875" lon="-1.54309">
        <ele>7</ele>
        <time>2016-12-15T18:55:27Z</time>
      </trkpt>
      <trkpt lat="47.20878" lon="-1.54298">
        <ele>7</ele>
        <time>2016-12-15T18:55:30Z</time>
      </trkpt>
      <trkpt lat="47.20881" lon="-1.54287">
        <ele>8</ele>
        <time>2016-12-15T18:55:33Z</time>
      </trkpt>
      <trkpt lat="47.2088" lon="-1.54273">
        <ele>10</ele>
        <time>2016-12-15T18:55:36Z</time>
      </trkpt>
      <trkpt lat="47.20886" lon="-1.54267">
        <ele>11</ele>
        <time>2016-12-15T18:55:39Z</time>
      </trkpt>
      <trkpt lat="47.20892" lon="-1.54261">
        <ele>12</ele>
        <time>2016-12-15T18:55:42Z</time>
      </trkpt>
      <trkpt lat="47.20894" lon="-1.54255">
        <ele>13</ele>
        <time>2016-12-15T18:55:45Z</time>
      </trkpt>
      <trkpt lat="47.20896" lon="-1.54244">
        <ele>14</ele>
        <time>2016-12-15T18:55:48Z</time>
      </trkpt>
      <trkpt lat="47.20897" lon="-1.54229">
        <ele>15</ele>
        <time>2016-12-15T18:55:51Z</time>
      </trkpt>
      <trkpt lat="47.209" lon="-1.54216">
        <ele>15</ele>
        <time>2016-12-15T18:55:54Z</time>
      </trkpt>
      <trkpt lat="47.20904" lon="-1.54203">
        <ele>16</ele>
        <time>2016-12-15T18:55:57Z</time>
      </trkpt>
      <trkpt lat="47.20907" lon="-1.54194">
        <ele>16</ele>
        <time>2016-12-15T18:56:00Z</time>
      </trkpt>
      <trkpt lat="47.20909" lon="-1.54185">
        <ele>17</ele>
        <time>2016-12-15T18:56:03Z</time>
      </trkpt>
      <trkpt lat="47.20909" lon="-1.54175">
        <ele>17</ele>
        <time>2016-12-15T18:56:06Z</time>
      </trkpt>
      <trkpt lat="47.2091" lon="-1.54166">
        <ele>17</ele>
        <time>2016-12-15T18:56:09Z</time>
      </trkpt>
      <trkpt lat="47.20909" lon="-1.5416">
        <ele>17</ele>
        <time>2016-12-15T18:56:12Z</time>
      </trkpt>
      <trkpt lat="47.20909" lon="-1.54151">
        <ele>17</ele>
        <time>2016-12-15T18:56:15Z</time>
      </trkpt>
      <trkpt lat="47.20918" lon="-1.54144">
        <ele>17</ele>
        <time>2016-12-15T18:56:18Z</time>
      </trkpt>
      <trkpt lat="47.20927" lon="-1.54133">
        <ele>16</ele>
        <time>2016-12-15T18:56:21Z</time>
      </trkpt>
      <trkpt lat="47.20936" lon="-1.54121">
        <ele>14</ele>
        <time>2016-12-15T18:56:24Z</time>
      </trkpt>
      <trkpt lat="47.20944" lon="-1.54109">
        <ele>13</ele>
        <time>2016-12-15T18:56:27Z</time>
      </trkpt>
      <trkpt lat="47.2095" lon="-1.54094">
        <ele>13</ele>
        <time>2016-12-15T18:56:30Z</time>
      </trkpt>
      <trkpt lat="47.20954" lon="-1.54081">
        <ele>12</ele>
        <time>2016-12-15T18:56:33Z</time>
      </trkpt>
      <trkpt lat="47.2096" lon="-1.54069">
        <ele>12</ele>
        <time>2016-12-15T18:56:36Z</time>
      </trkpt>
      <trkpt lat="47.20965" lon="-1.54058">
        <ele>12</ele>
        <time>2016-12-15T18:56:39Z</time>
      </trkpt>
      <trkpt lat="47.20968" lon="-1.54047">
        <ele>11</ele>
        <time>2016-12-15T18:56:42Z</time>
      </trkpt>
      <trkpt lat="47.20972" lon="-1.54033">
        <ele>11</ele>
        <time>2016-12-15T18:56:45Z</time>
      </trkpt>
      <trkpt lat="47.20976" lon="-1.54021">
        <ele>11</ele>
        <time>2016-12-15T18:56:48Z</time>
      </trkpt>
      <trkpt lat="47.2098" lon="-1.54009">
        <ele>11</ele>
        <time>2016-12-15T18:56:51Z</time>
      </trkpt>
      <trkpt lat="47.20984" lon="-1.53997">
        <ele>11</ele>
        <time>2016-12-15T18:56:54Z</time>
      </trkpt>
      <trkpt lat="47.20988" lon="-1.53986">
        <ele>10</ele>
        <time>2016-12-15T18:56:57Z</time>
      </trkpt>
      <trkpt lat="47.20992" lon="-1.53973">
        <ele>10</ele>
        <time>2016-12-15T18:57:00Z</time>
      </trkpt>
      <trkpt lat="47.20994" lon="-1.53963">
        <ele>10</ele>
        <time>2016-12-15T18:57:03Z</time>
      </trkpt>
      <trkpt lat="47.20992" lon="-1.53954">
        <ele>10</ele>
        <time>2016-12-15T18:57:06Z</time>
      </trkpt>
      <trkpt lat="47.20995" lon="-1.5394">
        <ele>10</ele>
        <time>2016-12-15T18:57:09Z</time>
      </trkpt>
      <trkpt lat="47.21" lon="-1.53926">
        <ele>9</ele>
        <time>2016-12-15T18:57:12Z</time>
      </trkpt>
      <trkpt lat="47.21001" lon="-1.53915">
        <ele>9</ele>
        <time>2016-12-15T18:57:15Z</time>
      </trkpt>
      <trkpt lat="47.21004" lon="-1.53903">
        <ele>9</ele>
        <time>2016-12-15T18:57:18Z</time>
      </trkpt>
      <trkpt lat="47.2101" lon="-1.53889">
        <ele>8</ele>
        <time>2016-12-15T18:57:21Z</time>
      </trkpt>
      <trkpt lat="47.21017" lon="-1.53869">
        <ele>8</ele>
        <time>2016-12-15T18:57:25Z</time>
      </trkpt>
      <trkpt lat="47.21021" lon="-1.53854">
        <ele>8</ele>
        <time>2016-12-15T18:57:28Z</time>
      </trkpt>
      <trkpt lat="47.21027" lon="-1.53838">
        <ele>8</ele>
        <time>2016-12-15T18:57:31Z</time>
      </trkpt>
      <trkpt lat="47.21028" lon="-1.53822">
        <ele>8</ele>
        <time>2016-12-15T18:57:34Z</time>
      </trkpt>
      <trkpt lat="47.21029" lon="-1.53806">
        <ele>7</ele>
        <time>2016-12-15T18:57:37Z</time>
      </trkpt>
      <trkpt lat="47.2103" lon="-1.53791">
        <ele>7</ele>
        <time>2016-12-15T18:57:40Z</time>
      </trkpt>
      <trkpt lat="47.21033" lon="-1.53778">
        <ele>7</ele>
        <time>2016-12-15T18:57:43Z</time>
      </trkpt>
      <trkpt lat="47.21034" lon="-1.53767">
        <ele>7</ele>
        <time>2016-12-15T18:57:46Z</time>
      </trkpt>
      <trkpt lat="47.21036" lon="-1.53757">
        <ele>7</ele>
        <time>2016-12-15T18:57:49Z</time>
      </trkpt>
      <trkpt lat="47.21035" lon="-1.53746">
        <ele>7</ele>
        <time>2016-12-15T18:57:52Z</time>
      </trkpt>
      <trkpt lat="47.21037" lon="-1.53735">
        <ele>7</ele>
        <time>2016-12-15T18:57:55Z</time>
      </trkpt>
      <trkpt lat="47.21035" lon="-1.53724">
        <ele>7</ele>
        <time>2016-12-15T18:57:58Z</time>
      </trkpt>
      <trkpt lat="47.21032" lon="-1.53714">
        <ele>7</ele>
        <time>2016-12-15T18:58:01Z</time>
      </trkpt>
      <trkpt lat="47.21035" lon="-1.53701">
        <ele>7</ele>
        <time>2016-12-15T18:58:04Z</time>
      </trkpt>
      <trkpt lat="47.21038" lon="-1.53686">
        <ele>8</ele>
        <time>2016-12-15T18:58:07Z</time>
      </trkpt>
      <trkpt lat="47.21039" lon="-1.5367">
        <ele>8</ele>
        <time>2016-12-15T18:58:10Z</time>
      </trkpt>
      <trkpt lat="47.21039" lon="-1.53655">
        <ele>8</ele>
        <time>2016-12-15T18:58:13Z</time>
      </trkpt>
      <trkpt lat="47.21042" lon="-1.53641">
        <ele>8</ele>
        <time>2016-12-15T18:58:16Z</time>
      </trkpt>
      <trkpt lat="47.21044" lon="-1.53625">
        <ele>9</ele>
        <time>2016-12-15T18:58:19Z</time>
      </trkpt>
      <trkpt lat="47.21044" lon="-1.5361">
        <ele>9</ele>
        <time>2016-12-15T18:58:22Z</time>
      </trkpt>
      <trkpt lat="47.21046" lon="-1.53594">
        <ele>9</ele>
        <time>2016-12-15T18:58:25Z</time>
      </trkpt>
      <trkpt lat="47.2105" lon="-1.5358">
        <ele>10</ele>
        <time>2016-12-15T18:58:28Z</time>
      </trkpt>
      <trkpt lat="47.21055" lon="-1.53569">
        <ele>10</ele>
        <time>2016-12-15T18:58:31Z</time>
      </trkpt>
      <trkpt lat="47.21063" lon="-1.53562">
        <ele>10</ele>
        <time>2016-12-15T18:58:34Z</time>
      </trkpt>
      <trkpt lat="47.21068" lon="-1.53551">
        <ele>10</ele>
        <time>2016-12-15T18:58:37Z</time>
      </trkpt>
      <trkpt lat="47.21071" lon="-1.53538">
        <ele>10</ele>
        <time>2016-12-15T18:58:40Z</time>
      </trkpt>
      <trkpt lat="47.21074" lon="-1.53524">
        <ele>10</ele>
        <time>2016-12-15T18:58:43Z</time>
      </trkpt>
      <trkpt lat="47.21075" lon="-1.53512">
        <ele>10</ele>
        <time>2016-12-15T18:58:46Z</time>
      </trkpt>
      <trkpt lat="47.21075" lon="-1.53503">
        <ele>10</ele>
        <time>2016-12-15T18:58:49Z</time>
      </trkpt>
      <trkpt lat="47.21077" lon="-1.53492">
        <ele>10</ele>
        <time>2016-12-15T18:58:52Z</time>
      </trkpt>
      <trkpt lat="47.21072" lon="-1.53476">
        <ele>9</ele>
        <time>2016-12-15T18:58:55Z</time>
      </trkpt>
      <trkpt lat="47.21067" lon="-1.53469">
        <ele>9</ele>
        <time>2016-12-15T18:58:58Z</time>
      </trkpt>
      <trkpt lat="47.21062" lon="-1.5346">
        <ele>9</ele>
        <time>2016-12-15T18:59:01Z</time>
      </trkpt>
      <trkpt lat="47.21058" lon="-1.53449">
        <ele>9</ele>
        <time>2016-12-15T18:59:04Z</time>
      </trkpt>
      <trkpt lat="47.21055" lon="-1.53432">
        <ele>9</ele>
        <time>2016-12-15T18:59:07Z</time>
      </trkpt>
      <trkpt lat="47.21056" lon="-1.53419">
        <ele>9</ele>
        <time>2016-12-15T18:59:10Z</time>
      </trkpt>
      <trkpt lat="47.2106" lon="-1.53405">
        <ele>9</ele>
        <time>2016-12-15T18:59:13Z</time>
      </trkpt>
      <trkpt lat="47.21062" lon="-1.53396">
        <ele>9</ele>
        <time>2016-12-15T18:59:16Z</time>
      </trkpt>
      <trkpt lat="47.21064" lon="-1.53384">
        <ele>9</ele>
        <time>2016-12-15T18:59:19Z</time>
      </trkpt>
      <trkpt lat="47.21065" lon="-1.53369">
        <ele>9</ele>
        <time>2016-12-15T18:59:22Z</time>
      </trkpt>
      <trkpt lat="47.21069" lon="-1.53355">
        <ele>8</ele>
        <time>2016-12-15T18:59:25Z</time>
      </trkpt>
      <trkpt lat="47.21072" lon="-1.53342">
        <ele>8</ele>
        <time>2016-12-15T18:59:28Z</time>
      </trkpt>
      <trkpt lat="47.21077" lon="-1.53326">
        <ele>8</ele>
        <time>2016-12-15T18:59:31Z</time>
      </trkpt>
      <trkpt lat="47.21081" lon="-1.53309">
        <ele>8</ele>
        <time>2016-12-15T18:59:34Z</time>
      </trkpt>
      <trkpt lat="47.21086" lon="-1.53295">
        <ele>7</ele>
        <time>2016-12-15T18:59:37Z</time>
      </trkpt>
      <trkpt lat="47.21089" lon="-1.53282">
        <ele>7</ele>
        <time>2016-12-15T18:59:40Z</time>
      </trkpt>
      <trkpt lat="47.21089" lon="-1.53268">
        <ele>7</ele>
        <time>2016-12-15T18:59:43Z</time>
      </trkpt>
      <trkpt lat="47.2109" lon="-1.53254">
        <ele>6</ele>
        <time>2016-12-15T18:59:47Z</time>
      </trkpt>
      <trkpt lat="47.21089" lon="-1.53241">
        <ele>6</ele>
        <time>2016-12-15T18:59:50Z</time>
      </trkpt>
      <trkpt lat="47.21091" lon="-1.53231">
        <ele>6</ele>
        <time>2016-12-15T18:59:53Z</time>
      </trkpt>
      <trkpt lat="47.21093" lon="-1.53219">
        <ele>7</ele>
        <time>2016-12-15T18:59:56Z</time>
      </trkpt>
      <trkpt lat="47.21096" lon="-1.53205">
        <ele>7</ele>
        <time>2016-12-15T18:59:59Z</time>
      </trkpt>
      <trkpt lat="47.21098" lon="-1.5319">
        <ele>7</ele>
        <time>2016-12-15T19:00:02Z</time>
      </trkpt>
      <trkpt lat="47.21099" lon="-1.53176">
        <ele>7</ele>
        <time>2016-12-15T19:00:05Z</time>
      </trkpt>
      <trkpt lat="47.211" lon="-1.53162">
        <ele>7</ele>
        <time>2016-12-15T19:00:08Z</time>
      </trkpt>
      <trkpt lat="47.21102" lon="-1.53149">
        <ele>7</ele>
        <time>2016-12-15T19:00:11Z</time>
      </trkpt>
      <trkpt lat="47.21103" lon="-1.53138">
        <ele>8</ele>
        <time>2016-12-15T19:00:14Z</time>
      </trkpt>
      <trkpt lat="47.21104" lon="-1.53126">
        <ele>8</ele>
        <time>2016-12-15T19:00:17Z</time>
      </trkpt>
      <trkpt lat="47.21105" lon="-1.53116">
        <ele>8</ele>
        <time>2016-12-15T19:00:20Z</time>
      </trkpt>
      <trkpt lat="47.21102" lon="-1.53102">
        <ele>9</ele>
        <time>2016-12-15T19:00:23Z</time>
      </trkpt>
      <trkpt lat="47.21103" lon="-1.53092">
        <ele>10</ele>
        <time>2016-12-15T19:00:26Z</time>
      </trkpt>
      <trkpt lat="47.21106" lon="-1.5308">
        <ele>10</ele>
        <time>2016-12-15T19:00:29Z</time>
      </trkpt>
      <trkpt lat="47.2111" lon="-1.53065">
        <ele>10</ele>
        <time>2016-12-15T19:00:32Z</time>
      </trkpt>
      <trkpt lat="47.21115" lon="-1.53047">
        <ele>11</ele>
        <time>2016-12-15T19:00:35Z</time>
      </trkpt>
      <trkpt lat="47.2112" lon="-1.5303">
        <ele>11</ele>
        <time>2016-12-15T19:00:39Z</time>
      </trkpt>
      <trkpt lat="47.21121" lon="-1.53017">
        <ele>11</ele>
        <time>2016-12-15T19:00:42Z</time>
      </trkpt>
      <trkpt lat="47.21121" lon="-1.53005">
        <ele>12</ele>
        <time>2016-12-15T19:00:45Z</time>
      </trkpt>
      <trkpt lat="47.21122" lon="-1.52993">
        <ele>13</ele>
        <time>2016-12-15T19:00:48Z</time>
      </trkpt>
      <trkpt lat="47.21126" lon="-1.52977">
        <ele>14</ele>
        <time>2016-12-15T19:00:51Z</time>
      </trkpt>
      <trkpt lat="47.2113" lon="-1.52961">
        <ele>15</ele>
        <time>2016-12-15T19:00:54Z</time>
      </trkpt>
      <trkpt lat="47.21135" lon="-1.52942">
        <ele>15</ele>
        <time>2016-12-15T19:00:57Z</time>
      </trkpt>
      <trkpt lat="47.21139" lon="-1.52926">
        <ele>15</ele>
        <time>2016-12-15T19:01:00Z</time>
      </trkpt>
      <trkpt lat="47.21141" lon="-1.52915">
        <ele>15</ele>
        <time>2016-12-15T19:01:03Z</time>
      </trkpt>
      <trkpt lat="47.21142" lon="-1.52909">
        <ele>9</ele>
        <time>2016-12-15T19:01:06Z</time>
      </trkpt>
      <trkpt lat="47.21148" lon="-1.52905">
        <ele>9</ele>
        <time>2016-12-15T19:01:09Z</time>
      </trkpt>
      <trkpt lat="47.21158" lon="-1.52908">
        <ele>9</ele>
        <time>2016-12-15T19:01:12Z</time>
      </trkpt>
      <trkpt lat="47.21169" lon="-1.52912">
        <ele>10</ele>
        <time>2016-12-15T19:01:15Z</time>
      </trkpt>
      <trkpt lat="47.21178" lon="-1.52914">
        <ele>10</ele>
        <time>2016-12-15T19:01:18Z</time>
      </trkpt>
      <trkpt lat="47.21186" lon="-1.52914">
        <ele>10</ele>
        <time>2016-12-15T19:01:21Z</time>
      </trkpt>
      <trkpt lat="47.21194" lon="-1.52913">
        <ele>10</ele>
        <time>2016-12-15T19:01:24Z</time>
      </trkpt>
      <trkpt lat="47.21203" lon="-1.52917">
        <ele>10</ele>
        <time>2016-12-15T19:01:27Z</time>
      </trkpt>
      <trkpt lat="47.21213" lon="-1.52921">
        <ele>10</ele>
        <time>2016-12-15T19:01:30Z</time>
      </trkpt>
      <trkpt lat="47.21221" lon="-1.52926">
        <ele>10</ele>
        <time>2016-12-15T19:01:33Z</time>
      </trkpt>
      <trkpt lat="47.21231" lon="-1.52932">
        <ele>10</ele>
        <time>2016-12-15T19:01:37Z</time>
      </trkpt>
      <trkpt lat="47.21239" lon="-1.52933">
        <ele>10</ele>
        <time>2016-12-15T19:01:40Z</time>
      </trkpt>
      <trkpt lat="47.21248" lon="-1.52934">
        <ele>10</ele>
        <time>2016-12-15T19:01:43Z</time>
      </trkpt>
      <trkpt lat="47.21257" lon="-1.52936">
        <ele>10</ele>
        <time>2016-12-15T19:01:46Z</time>
      </trkpt>
      <trkpt lat="47.21268" lon="-1.52938">
        <ele>10</ele>
        <time>2016-12-15T19:01:49Z</time>
      </trkpt>
      <trkpt lat="47.21279" lon="-1.52942">
        <ele>10</ele>
        <time>2016-12-15T19:01:52Z</time>
      </trkpt>
      <trkpt lat="47.21289" lon="-1.52946">
        <ele>11</ele>
        <time>2016-12-15T19:01:55Z</time>
      </trkpt>
      <trkpt lat="47.213" lon="-1.52946">
        <ele>11</ele>
        <time>2016-12-15T19:01:58Z</time>
      </trkpt>
      <trkpt lat="47.2131" lon="-1.52951">
        <ele>11</ele>
        <time>2016-12-15T19:02:01Z</time>
      </trkpt>
      <trkpt lat="47.21316" lon="-1.52954">
        <ele>11</ele>
        <time>2016-12-15T19:02:04Z</time>
      </trkpt>
      <trkpt lat="47.21326" lon="-1.52956">
        <ele>11</ele>
        <time>2016-12-15T19:02:07Z</time>
      </trkpt>
      <trkpt lat="47.21334" lon="-1.52956">
        <ele>11</ele>
        <time>2016-12-15T19:02:10Z</time>
      </trkpt>
      <trkpt lat="47.21343" lon="-1.5296">
        <ele>11</ele>
        <time>2016-12-15T19:02:13Z</time>
      </trkpt>
      <trkpt lat="47.21354" lon="-1.52967">
        <ele>11</ele>
        <time>2016-12-15T19:02:16Z</time>
      </trkpt>
      <trkpt lat="47.21358" lon="-1.52975">
        <ele>11</ele>
        <time>2016-12-15T19:02:19Z</time>
      </trkpt>
      <trkpt lat="47.21356" lon="-1.52996">
        <ele>10</ele>
        <time>2016-12-15T19:02:23Z</time>
      </trkpt>
      <trkpt lat="47.21354" lon="-1.53013">
        <ele>9</ele>
        <time>2016-12-15T19:02:26Z</time>
      </trkpt>
      <trkpt lat="47.21352" lon="-1.53025">
        <ele>7</ele>
        <time>2016-12-15T19:02:29Z</time>
      </trkpt>
      <trkpt lat="47.21348" lon="-1.5304">
        <ele>6</ele>
        <time>2016-12-15T19:02:32Z</time>
      </trkpt>
      <trkpt lat="47.21344" lon="-1.53053">
        <ele>4</ele>
        <time>2016-12-15T19:02:35Z</time>
      </trkpt>
      <trkpt lat="47.21341" lon="-1.53067">
        <ele>3</ele>
        <time>2016-12-15T19:02:38Z</time>
      </trkpt>
      <trkpt lat="47.21338" lon="-1.5308">
        <ele>2</ele>
        <time>2016-12-15T19:02:41Z</time>
      </trkpt>
      <trkpt lat="47.21334" lon="-1.53092">
        <ele>1</ele>
        <time>2016-12-15T19:02:44Z</time>
      </trkpt>
      <trkpt lat="47.2133" lon="-1.53104">
        <ele>1</ele>
        <time>2016-12-15T19:02:47Z</time>
      </trkpt>
      <trkpt lat="47.21326" lon="-1.53118">
        <ele>7.6</ele>
        <time>2016-12-15T19:02:50Z</time>
      </trkpt>
      <trkpt lat="47.21323" lon="-1.53131">
        <ele>6.4</ele>
        <time>2016-12-15T19:02:53Z</time>
      </trkpt>
      <trkpt lat="47.21318" lon="-1.53144">
        <ele>4.8</ele>
        <time>2016-12-15T19:02:56Z</time>
      </trkpt>
      <trkpt lat="47.21316" lon="-1.53158">
        <ele>4.9</ele>
        <time>2016-12-15T19:02:59Z</time>
      </trkpt>
      <trkpt lat="47.21312" lon="-1.53171">
        <ele>4.9</ele>
        <time>2016-12-15T19:03:02Z</time>
      </trkpt>
      <trkpt lat="47.21311" lon="-1.53185">
        <ele>5.2</ele>
        <time>2016-12-15T19:03:05Z</time>
      </trkpt>
      <trkpt lat="47.21309" lon="-1.532">
        <ele>5.5</ele>
        <time>2016-12-15T19:03:08Z</time>
      </trkpt>
      <trkpt lat="47.21307" lon="-1.53215">
        <ele>5.9</ele>
        <time>2016-12-15T19:03:11Z</time>
      </trkpt>
      <trkpt lat="47.21306" lon="-1.5323">
        <ele>6.3</ele>
        <time>2016-12-15T19:03:14Z</time>
      </trkpt>
      <trkpt lat="47.21308" lon="-1.53248">
        <ele>7</ele>
        <time>2016-12-15T19:03:17Z</time>
      </trkpt>
      <trkpt lat="47.21308" lon="-1.53262">
        <ele>7.1</ele>
        <time>2016-12-15T19:03:20Z</time>
      </trkpt>
      <trkpt lat="47.21308" lon="-1.53275">
        <ele>7.1</ele>
        <time>2016-12-15T19:03:23Z</time>
      </trkpt>
      <trkpt lat="47.21311" lon="-1.53289">
        <ele>7.1</ele>
        <time>2016-12-15T19:03:27Z</time>
      </trkpt>
      <trkpt lat="47.21309" lon="-1.53302">
        <ele>7</ele>
        <time>2016-12-15T19:03:30Z</time>
      </trkpt>
      <trkpt lat="47.21307" lon="-1.53317">
        <ele>7</ele>
        <time>2016-12-15T19:03:33Z</time>
      </trkpt>
      <trkpt lat="47.21307" lon="-1.53327">
        <ele>4</ele>
        <time>2016-12-15T19:03:36Z</time>
      </trkpt>
      <trkpt lat="47.21306" lon="-1.53345">
        <ele>4</ele>
        <time>2016-12-15T19:03:39Z</time>
      </trkpt>
      <trkpt lat="47.21303" lon="-1.5336">
        <ele>4</ele>
        <time>2016-12-15T19:03:42Z</time>
      </trkpt>
      <trkpt lat="47.21301" lon="-1.53371">
        <ele>4</ele>
        <time>2016-12-15T19:03:45Z</time>
      </trkpt>
      <trkpt lat="47.213" lon="-1.53383">
        <ele>4</ele>
        <time>2016-12-15T19:03:48Z</time>
      </trkpt>
      <trkpt lat="47.21298" lon="-1.53395">
        <ele>4</ele>
        <time>2016-12-15T19:03:51Z</time>
      </trkpt>
      <trkpt lat="47.21297" lon="-1.53409">
        <ele>4</ele>
        <time>2016-12-15T19:03:54Z</time>
      </trkpt>
      <trkpt lat="47.21296" lon="-1.53423">
        <ele>5</ele>
        <time>2016-12-15T19:03:57Z</time>
      </trkpt>
      <trkpt lat="47.21295" lon="-1.53437">
        <ele>5</ele>
        <time>2016-12-15T19:04:00Z</time>
      </trkpt>
      <trkpt lat="47.21293" lon="-1.53449">
        <ele>5</ele>
        <time>2016-12-15T19:04:03Z</time>
      </trkpt>
      <trkpt lat="47.21293" lon="-1.53462">
        <ele>6</ele>
        <time>2016-12-15T19:04:06Z</time>
      </trkpt>
      <trkpt lat="47.21296" lon="-1.53475">
        <ele>6</ele>
        <time>2016-12-15T19:04:09Z</time>
      </trkpt>
      <trkpt lat="47.213" lon="-1.5349">
        <ele>7</ele>
        <time>2016-12-15T19:04:12Z</time>
      </trkpt>
      <trkpt lat="47.21307" lon="-1.53501">
        <ele>6</ele>
        <time>2016-12-15T19:04:15Z</time>
      </trkpt>
      <trkpt lat="47.21313" lon="-1.53507">
        <ele>6</ele>
        <time>2016-12-15T19:04:18Z</time>
      </trkpt>
      <trkpt lat="47.21319" lon="-1.53511">
        <ele>6</ele>
        <time>2016-12-15T19:04:21Z</time>
      </trkpt>
      <trkpt lat="47.21324" lon="-1.53521">
        <ele>6</ele>
        <time>2016-12-15T19:04:24Z</time>
      </trkpt>
      <trkpt lat="47.21324" lon="-1.53536">
        <ele>6</ele>
        <time>2016-12-15T19:04:27Z</time>
      </trkpt>
      <trkpt lat="47.21324" lon="-1.53548">
        <ele>6</ele>
        <time>2016-12-15T19:04:30Z</time>
      </trkpt>
      <trkpt lat="47.21325" lon="-1.5356">
        <ele>6</ele>
        <time>2016-12-15T19:04:33Z</time>
      </trkpt>
      <trkpt lat="47.21325" lon="-1.53572">
        <ele>6</ele>
        <time>2016-12-15T19:04:36Z</time>
      </trkpt>
      <trkpt lat="47.21326" lon="-1.53583">
        <ele>6</ele>
        <time>2016-12-15T19:04:39Z</time>
      </trkpt>
      <trkpt lat="47.21325" lon="-1.53594">
        <ele>5</ele>
        <time>2016-12-15T19:04:42Z</time>
      </trkpt>
      <trkpt lat="47.21327" lon="-1.53605">
        <ele>5</ele>
        <time>2016-12-15T19:04:45Z</time>
      </trkpt>
      <trkpt lat="47.21329" lon="-1.53619">
        <ele>4</ele>
        <time>2016-12-15T19:04:48Z</time>
      </trkpt>
      <trkpt lat="47.21329" lon="-1.5363">
        <ele>4</ele>
        <time>2016-12-15T19:04:51Z</time>
      </trkpt>
      <trkpt lat="47.21329" lon="-1.53644">
        <ele>4</ele>
        <time>2016-12-15T19:04:54Z</time>
      </trkpt>
      <trkpt lat="47.21328" lon="-1.53656">
        <ele>6</ele>
        <time>2016-12-15T19:04:57Z</time>
      </trkpt>
      <trkpt lat="47.21328" lon="-1.53671">
        <ele>7</ele>
        <time>2016-12-15T19:05:00Z</time>
      </trkpt>
      <trkpt lat="47.2133" lon="-1.53685">
        <ele>7</ele>
        <time>2016-12-15T19:05:03Z</time>
      </trkpt>
      <trkpt lat="47.21333" lon="-1.53699">
        <ele>7</ele>
        <time>2016-12-15T19:05:06Z</time>
      </trkpt>
      <trkpt lat="47.21342" lon="-1.53711">
        <ele>7</ele>
        <time>2016-12-15T19:05:09Z</time>
      </trkpt>
      <trkpt lat="47.2135" lon="-1.53721">
        <ele>8</ele>
        <time>2016-12-15T19:05:12Z</time>
      </trkpt>
      <trkpt lat="47.21359" lon="-1.53716">
        <ele>8</ele>
        <time>2016-12-15T19:05:15Z</time>
      </trkpt>
      <trkpt lat="47.21369" lon="-1.53716">
        <ele>8</ele>
        <time>2016-12-15T19:05:18Z</time>
      </trkpt>
      <trkpt lat="47.21382" lon="-1.53714">
        <ele>9</ele>
        <time>2016-12-15T19:05:21Z</time>
      </trkpt>
      <trkpt lat="47.21393" lon="-1.53713">
        <ele>9</ele>
        <time>2016-12-15T19:05:24Z</time>
      </trkpt>
      <trkpt lat="47.21404" lon="-1.53713">
        <ele>9</ele>
        <time>2016-12-15T19:05:27Z</time>
      </trkpt>
      <trkpt lat="47.21413" lon="-1.53717">
        <ele>8</ele>
        <time>2016-12-15T19:05:30Z</time>
      </trkpt>
      <trkpt lat="47.21421" lon="-1.53723">
        <ele>8</ele>
        <time>2016-12-15T19:05:33Z</time>
      </trkpt>
      <trkpt lat="47.21429" lon="-1.53729">
        <ele>8</ele>
        <time>2016-12-15T19:05:36Z</time>
      </trkpt>
      <trkpt lat="47.21438" lon="-1.53735">
        <ele>7</ele>
        <time>2016-12-15T19:05:39Z</time>
      </trkpt>
      <trkpt lat="47.21447" lon="-1.53738">
        <ele>7</ele>
        <time>2016-12-15T19:05:42Z</time>
      </trkpt>
      <trkpt lat="47.21455" lon="-1.53734">
        <ele>8</ele>
        <time>2016-12-15T19:05:45Z</time>
      </trkpt>
      <trkpt lat="47.2146" lon="-1.53724">
        <ele>8</ele>
        <time>2016-12-15T19:05:48Z</time>
      </trkpt>
      <trkpt lat="47.21466" lon="-1.53714">
        <ele>8</ele>
        <time>2016-12-15T19:05:51Z</time>
      </trkpt>
      <trkpt lat="47.21473" lon="-1.53703">
        <ele>8</ele>
        <time>2016-12-15T19:05:54Z</time>
      </trkpt>
      <trkpt lat="47.21477" lon="-1.53696">
        <ele>8</ele>
        <time>2016-12-15T19:05:57Z</time>
      </trkpt>
      <trkpt lat="47.21486" lon="-1.5368">
        <ele>8</ele>
        <time>2016-12-15T19:06:00Z</time>
      </trkpt>
      <trkpt lat="47.21494" lon="-1.53669">
        <ele>8</ele>
        <time>2016-12-15T19:06:03Z</time>
      </trkpt>
      <trkpt lat="47.21498" lon="-1.53657">
        <ele>7</ele>
        <time>2016-12-15T19:06:06Z</time>
      </trkpt>
      <trkpt lat="47.21503" lon="-1.53645">
        <ele>7</ele>
        <time>2016-12-15T19:06:09Z</time>
      </trkpt>
      <trkpt lat="47.21508" lon="-1.53635">
        <ele>7</ele>
        <time>2016-12-15T19:06:12Z</time>
      </trkpt>
      <trkpt lat="47.21514" lon="-1.5362">
        <ele>7</ele>
        <time>2016-12-15T19:06:15Z</time>
      </trkpt>
      <trkpt lat="47.21517" lon="-1.53608">
        <ele>6</ele>
        <time>2016-12-15T19:06:18Z</time>
      </trkpt>
      <trkpt lat="47.21521" lon="-1.53597">
        <ele>6</ele>
        <time>2016-12-15T19:06:21Z</time>
      </trkpt>
      <trkpt lat="47.21526" lon="-1.53588">
        <ele>6</ele>
        <time>2016-12-15T19:06:24Z</time>
      </trkpt>
      <trkpt lat="47.21532" lon="-1.53579">
        <ele>6</ele>
        <time>2016-12-15T19:06:27Z</time>
      </trkpt>
      <trkpt lat="47.21535" lon="-1.53569">
        <ele>6</ele>
        <time>2016-12-15T19:06:30Z</time>
      </trkpt>
      <trkpt lat="47.21537" lon="-1.53558">
        <ele>6</ele>
        <time>2016-12-15T19:06:33Z</time>
      </trkpt>
      <trkpt lat="47.21543" lon="-1.5355">
        <ele>7</ele>
        <time>2016-12-15T19:06:36Z</time>
      </trkpt>
      <trkpt lat="47.21548" lon="-1.53543">
        <ele>7</ele>
        <time>2016-12-15T19:06:39Z</time>
      </trkpt>
      <trkpt lat="47.2155" lon="-1.53536">
        <ele>7</ele>
        <time>2016-12-15T19:06:42Z</time>
      </trkpt>
      <trkpt lat="47.21554" lon="-1.53526">
        <ele>7</ele>
        <time>2016-12-15T19:06:45Z</time>
      </trkpt>
      <trkpt lat="47.21559" lon="-1.53516">
        <ele>8</ele>
        <time>2016-12-15T19:06:48Z</time>
      </trkpt>
      <trkpt lat="47.21565" lon="-1.53505">
        <ele>8</ele>
        <time>2016-12-15T19:06:51Z</time>
      </trkpt>
      <trkpt lat="47.21571" lon="-1.53492">
        <ele>9</ele>
        <time>2016-12-15T19:06:54Z</time>
      </trkpt>
      <trkpt lat="47.21576" lon="-1.53481">
        <ele>8</ele>
        <time>2016-12-15T19:06:57Z</time>
      </trkpt>
      <trkpt lat="47.21582" lon="-1.5347">
        <ele>8</ele>
        <time>2016-12-15T19:07:00Z</time>
      </trkpt>
      <trkpt lat="47.21589" lon="-1.53457">
        <ele>6</ele>
        <time>2016-12-15T19:07:03Z</time>
      </trkpt>
      <trkpt lat="47.21594" lon="-1.53445">
        <ele>6</ele>
        <time>2016-12-15T19:07:06Z</time>
      </trkpt>
      <trkpt lat="47.21601" lon="-1.5344">
        <ele>6</ele>
        <time>2016-12-15T19:07:09Z</time>
      </trkpt>
      <trkpt lat="47.21606" lon="-1.53438">
        <ele>6</ele>
        <time>2016-12-15T19:07:12Z</time>
      </trkpt>
      <trkpt lat="47.21608" lon="-1.53437">
        <ele>6</ele>
        <time>2016-12-15T19:07:15Z</time>
      </trkpt>
      <trkpt lat="47.21606" lon="-1.53435">
        <ele>6</ele>
        <time>2016-12-15T19:07:18Z</time>
      </trkpt>
      <trkpt lat="47.21607" lon="-1.53437">
        <ele>6</ele>
        <time>2016-12-15T19:07:21Z</time>
      </trkpt>
      <trkpt lat="47.21614" lon="-1.53441">
        <ele>6</ele>
        <time>2016-12-15T19:07:24Z</time>
      </trkpt>
      <trkpt lat="47.21621" lon="-1.53451">
        <ele>6</ele>
        <time>2016-12-15T19:07:27Z</time>
      </trkpt>
      <trkpt lat="47.21627" lon="-1.53463">
        <ele>6</ele>
        <time>2016-12-15T19:07:30Z</time>
      </trkpt>
      <trkpt lat="47.21633" lon="-1.53476">
        <ele>6</ele>
        <time>2016-12-15T19:07:33Z</time>
      </trkpt>
      <trkpt lat="47.21638" lon="-1.53488">
        <ele>7</ele>
        <time>2016-12-15T19:07:36Z</time>
      </trkpt>
      <trkpt lat="47.21643" lon="-1.53501">
        <ele>7</ele>
        <time>2016-12-15T19:07:39Z</time>
      </trkpt>
      <trkpt lat="47.21643" lon="-1.53512">
        <ele>7</ele>
        <time>2016-12-15T19:07:42Z</time>
      </trkpt>
      <trkpt lat="47.21644" lon="-1.53526">
        <ele>7</ele>
        <time>2016-12-15T19:07:45Z</time>
      </trkpt>
      <trkpt lat="47.21648" lon="-1.53541">
        <ele>7</ele>
        <time>2016-12-15T19:07:48Z</time>
      </trkpt>
      <trkpt lat="47.21651" lon="-1.53555">
        <ele>7</ele>
        <time>2016-12-15T19:07:51Z</time>
      </trkpt>
      <trkpt lat="47.21651" lon="-1.53568">
        <ele>7</ele>
        <time>2016-12-15T19:07:54Z</time>
      </trkpt>
      <trkpt lat="47.21651" lon="-1.53581">
        <ele>8</ele>
        <time>2016-12-15T19:07:57Z</time>
      </trkpt>
      <trkpt lat="47.21647" lon="-1.53595">
        <ele>8</ele>
        <time>2016-12-15T19:08:00Z</time>
      </trkpt>
      <trkpt lat="47.21645" lon="-1.53613">
        <ele>8</ele>
        <time>2016-12-15T19:08:03Z</time>
      </trkpt>
      <trkpt lat="47.21642" lon="-1.53629">
        <ele>8</ele>
        <time>2016-12-15T19:08:06Z</time>
      </trkpt>
      <trkpt lat="47.2164" lon="-1.53645">
        <ele>8</ele>
        <time>2016-12-15T19:08:09Z</time>
      </trkpt>
      <trkpt lat="47.21638" lon="-1.53659">
        <ele>8</ele>
        <time>2016-12-15T19:08:12Z</time>
      </trkpt>
      <trkpt lat="47.21637" lon="-1.53672">
        <ele>8</ele>
        <time>2016-12-15T19:08:15Z</time>
      </trkpt>
      <trkpt lat="47.21635" lon="-1.53687">
        <ele>8</ele>
        <time>2016-12-15T19:08:18Z</time>
      </trkpt>
      <trkpt lat="47.21631" lon="-1.53699">
        <ele>8</ele>
        <time>2016-12-15T19:08:21Z</time>
      </trkpt>
      <trkpt lat="47.21627" lon="-1.53711">
        <ele>8</ele>
        <time>2016-12-15T19:08:24Z</time>
      </trkpt>
      <trkpt lat="47.21623" lon="-1.53722">
        <ele>8</ele>
        <time>2016-12-15T19:08:27Z</time>
      </trkpt>
      <trkpt lat="47.21619" lon="-1.53732">
        <ele>8</ele>
        <time>2016-12-15T19:08:30Z</time>
      </trkpt>
      <trkpt lat="47.21615" lon="-1.53742">
        <ele>7</ele>
        <time>2016-12-15T19:08:33Z</time>
      </trkpt>
      <trkpt lat="47.2161" lon="-1.53754">
        <ele>7</ele>
        <time>2016-12-15T19:08:36Z</time>
      </trkpt>
      <trkpt lat="47.21605" lon="-1.53767">
        <ele>7</ele>
        <time>2016-12-15T19:08:39Z</time>
      </trkpt>
      <trkpt lat="47.216" lon="-1.53779">
        <ele>7</ele>
        <time>2016-12-15T19:08:42Z</time>
      </trkpt>
      <trkpt lat="47.21597" lon="-1.5379">
        <ele>7</ele>
        <time>2016-12-15T19:08:45Z</time>
      </trkpt>
      <trkpt lat="47.21593" lon="-1.53801">
        <ele>7</ele>
        <time>2016-12-15T19:08:48Z</time>
      </trkpt>
      <trkpt lat="47.21588" lon="-1.53813">
        <ele>7</ele>
        <time>2016-12-15T19:08:51Z</time>
      </trkpt>
      <trkpt lat="47.21584" lon="-1.53822">
        <ele>7</ele>
        <time>2016-12-15T19:08:54Z</time>
      </trkpt>
      <trkpt lat="47.21578" lon="-1.53832">
        <ele>7</ele>
        <time>2016-12-15T19:08:57Z</time>
      </trkpt>
      <trkpt lat="47.21573" lon="-1.53841">
        <ele>7</ele>
        <time>2016-12-15T19:09:00Z</time>
      </trkpt>
      <trkpt lat="47.21567" lon="-1.5385">
        <ele>7</ele>
        <time>2016-12-15T19:09:03Z</time>
      </trkpt>
      <trkpt lat="47.21564" lon="-1.53862">
        <ele>7</ele>
        <time>2016-12-15T19:09:06Z</time>
      </trkpt>
      <trkpt lat="47.21566" lon="-1.53875">
        <ele>7</ele>
        <time>2016-12-15T19:09:09Z</time>
      </trkpt>
      <trkpt lat="47.21572" lon="-1.53888">
        <ele>8</ele>
        <time>2016-12-15T19:09:12Z</time>
      </trkpt>
      <trkpt lat="47.2158" lon="-1.53898">
        <ele>8</ele>
        <time>2016-12-15T19:09:15Z</time>
      </trkpt>
      <trkpt lat="47.21585" lon="-1.53909">
        <ele>8</ele>
        <time>2016-12-15T19:09:18Z</time>
      </trkpt>
      <trkpt lat="47.21587" lon="-1.53922">
        <ele>8</ele>
        <time>2016-12-15T19:09:21Z</time>
      </trkpt>
      <trkpt lat="47.21587" lon="-1.53934">
        <ele>9</ele>
        <time>2016-12-15T19:09:24Z</time>
      </trkpt>
      <trkpt lat="47.21585" lon="-1.53943">
        <ele>9</ele>
        <time>2016-12-15T19:09:27Z</time>
      </trkpt>
      <trkpt lat="47.21583" lon="-1.53955">
        <ele>9</ele>
        <time>2016-12-15T19:09:30Z</time>
      </trkpt>
      <trkpt lat="47.21581" lon="-1.53967">
        <ele>9</ele>
        <time>2016-12-15T19:09:33Z</time>
      </trkpt>
      <trkpt lat="47.21576" lon="-1.53978">
        <ele>9</ele>
        <time>2016-12-15T19:09:36Z</time>
      </trkpt>
      <trkpt lat="47.21571" lon="-1.53988">
        <ele>10</ele>
        <time>2016-12-15T19:09:39Z</time>
      </trkpt>
      <trkpt lat="47.21565" lon="-1.53999">
        <ele>10</ele>
        <time>2016-12-15T19:09:42Z</time>
      </trkpt>
      <trkpt lat="47.2156" lon="-1.54012">
        <ele>10</ele>
        <time>2016-12-15T19:09:45Z</time>
      </trkpt>
      <trkpt lat="47.21556" lon="-1.54023">
        <ele>10</ele>
        <time>2016-12-15T19:09:48Z</time>
      </trkpt>
      <trkpt lat="47.21554" lon="-1.54035">
        <ele>10</ele>
        <time>2016-12-15T19:09:51Z</time>
      </trkpt>
      <trkpt lat="47.21551" lon="-1.54048">
        <ele>11</ele>
        <time>2016-12-15T19:09:54Z</time>
      </trkpt>
      <trkpt lat="47.21549" lon="-1.54061">
        <ele>11</ele>
        <time>2016-12-15T19:09:57Z</time>
      </trkpt>
      <trkpt lat="47.2155" lon="-1.54074">
        <ele>11</ele>
        <time>2016-12-15T19:10:00Z</time>
      </trkpt>
      <trkpt lat="47.21545" lon="-1.54084">
        <ele>10</ele>
        <time>2016-12-15T19:10:03Z</time>
      </trkpt>
      <trkpt lat="47.21539" lon="-1.54093">
        <ele>9</ele>
        <time>2016-12-15T19:10:06Z</time>
      </trkpt>
      <trkpt lat="47.21533" lon="-1.54102">
        <ele>8</ele>
        <time>2016-12-15T19:10:09Z</time>
      </trkpt>
      <trkpt lat="47.21528" lon="-1.54113">
        <ele>8</ele>
        <time>2016-12-15T19:10:12Z</time>
      </trkpt>
      <trkpt lat="47.21524" lon="-1.54124">
        <ele>7</ele>
        <time>2016-12-15T19:10:15Z</time>
      </trkpt>
      <trkpt lat="47.2152" lon="-1.54136">
        <ele>7</ele>
        <time>2016-12-15T19:10:18Z</time>
      </trkpt>
      <trkpt lat="47.21516" lon="-1.54148">
        <ele>6</ele>
        <time>2016-12-15T19:10:21Z</time>
      </trkpt>
      <trkpt lat="47.21513" lon="-1.54157">
        <ele>6</ele>
        <time>2016-12-15T19:10:24Z</time>
      </trkpt>
      <trkpt lat="47.21513" lon="-1.54164">
        <ele>5</ele>
        <time>2016-12-15T19:10:27Z</time>
      </trkpt>
      <trkpt lat="47.21515" lon="-1.54172">
        <ele>5</ele>
        <time>2016-12-15T19:10:30Z</time>
      </trkpt>
      <trkpt lat="47.21512" lon="-1.5418">
        <ele>5</ele>
        <time>2016-12-15T19:10:33Z</time>
      </trkpt>
      <trkpt lat="47.21514" lon="-1.5419">
        <ele>6</ele>
        <time>2016-12-15T19:10:36Z</time>
      </trkpt>
      <trkpt lat="47.2152" lon="-1.54201">
        <ele>6</ele>
        <time>2016-12-15T19:10:39Z</time>
      </trkpt>
      <trkpt lat="47.21527" lon="-1.54211">
        <ele>6</ele>
        <time>2016-12-15T19:10:42Z</time>
      </trkpt>
      <trkpt lat="47.21533" lon="-1.54223">
        <ele>6</ele>
        <time>2016-12-15T19:10:45Z</time>
      </trkpt>
      <trkpt lat="47.21538" lon="-1.54232">
        <ele>6</ele>
        <time>2016-12-15T19:10:48Z</time>
      </trkpt>
      <trkpt lat="47.21546" lon="-1.54238">
        <ele>6</ele>
        <time>2016-12-15T19:10:51Z</time>
      </trkpt>
      <trkpt lat="47.21548" lon="-1.54248">
        <ele>6</ele>
        <time>2016-12-15T19:10:54Z</time>
      </trkpt>
      <trkpt lat="47.21545" lon="-1.54257">
        <ele>6</ele>
        <time>2016-12-15T19:10:57Z</time>
      </trkpt>
      <trkpt lat="47.21546" lon="-1.54268">
        <ele>6</ele>
        <time>2016-12-15T19:11:00Z</time>
      </trkpt>
      <trkpt lat="47.21548" lon="-1.54279">
        <ele>6</ele>
        <time>2016-12-15T19:11:03Z</time>
      </trkpt>
      <trkpt lat="47.21553" lon="-1.54289">
        <ele>6</ele>
        <time>2016-12-15T19:11:06Z</time>
      </trkpt>
      <trkpt lat="47.21558" lon="-1.54297">
        <ele>6</ele>
        <time>2016-12-15T19:11:09Z</time>
      </trkpt>
      <trkpt lat="47.21565" lon="-1.54304">
        <ele>6</ele>
        <time>2016-12-15T19:11:12Z</time>
      </trkpt>
      <trkpt lat="47.21572" lon="-1.54311">
        <ele>6</ele>
        <time>2016-12-15T19:11:15Z</time>
      </trkpt>
      <trkpt lat="47.2158" lon="-1.54321">
        <ele>7</ele>
        <time>2016-12-15T19:11:18Z</time>
      </trkpt>
      <trkpt lat="47.21585" lon="-1.5433">
        <ele>7</ele>
        <time>2016-12-15T19:11:21Z</time>
      </trkpt>
      <trkpt lat="47.2159" lon="-1.54339">
        <ele>7</ele>
        <time>2016-12-15T19:11:24Z</time>
      </trkpt>
      <trkpt lat="47.21594" lon="-1.54354">
        <ele>8</ele>
        <time>2016-12-15T19:11:27Z</time>
      </trkpt>
      <trkpt lat="47.21598" lon="-1.54365">
        <ele>8</ele>
        <time>2016-12-15T19:11:30Z</time>
      </trkpt>
      <trkpt lat="47.21601" lon="-1.54377">
        <ele>8</ele>
        <time>2016-12-15T19:11:33Z</time>
      </trkpt>
      <trkpt lat="47.21603" lon="-1.54389">
        <ele>8</ele>
        <time>2016-12-15T19:11:36Z</time>
      </trkpt>
      <trkpt lat="47.21605" lon="-1.54401">
        <ele>8</ele>
        <time>2016-12-15T19:11:39Z</time>
      </trkpt>
      <trkpt lat="47.21607" lon="-1.54414">
        <ele>8</ele>
        <time>2016-12-15T19:11:42Z</time>
      </trkpt>
      <trkpt lat="47.21609" lon="-1.54426">
        <ele>8</ele>
        <time>2016-12-15T19:11:45Z</time>
      </trkpt>
      <trkpt lat="47.21608" lon="-1.54436">
        <ele>8</ele>
        <time>2016-12-15T19:11:48Z</time>
      </trkpt>
      <trkpt lat="47.21606" lon="-1.54449">
        <ele>8</ele>
        <time>2016-12-15T19:11:51Z</time>
      </trkpt>
      <trkpt lat="47.21604" lon="-1.54462">
        <ele>8</ele>
        <time>2016-12-15T19:11:54Z</time>
      </trkpt>
      <trkpt lat="47.21602" lon="-1.54475">
        <ele>8</ele>
        <time>2016-12-15T19:11:57Z</time>
      </trkpt>
      <trkpt lat="47.21599" lon="-1.54488">
        <ele>8</ele>
        <time>2016-12-15T19:12:00Z</time>
      </trkpt>
      <trkpt lat="47.21594" lon="-1.54499">
        <ele>8</ele>
        <time>2016-12-15T19:12:03Z</time>
      </trkpt>
      <trkpt lat="47.2159" lon="-1.54513">
        <ele>8</ele>
        <time>2016-12-15T19:12:06Z</time>
      </trkpt>
      <trkpt lat="47.21587" lon="-1.54526">
        <ele>8</ele>
        <time>2016-12-15T19:12:09Z</time>
      </trkpt>
      <trkpt lat="47.21583" lon="-1.54538">
        <ele>8</ele>
        <time>2016-12-15T19:12:12Z</time>
      </trkpt>
      <trkpt lat="47.21578" lon="-1.54549">
        <ele>9</ele>
        <time>2016-12-15T19:12:15Z</time>
      </trkpt>
      <trkpt lat="47.21575" lon="-1.54554">
        <ele>10</ele>
        <time>2016-12-15T19:12:18Z</time>
      </trkpt>
      <trkpt lat="47.21571" lon="-1.54554">
        <ele>10</ele>
        <time>2016-12-15T19:12:21Z</time>
      </trkpt>
      <trkpt lat="47.21569" lon="-1.54547">
        <ele>11</ele>
        <time>2016-12-15T19:12:24Z</time>
      </trkpt>
      <trkpt lat="47.2157" lon="-1.5454">
        <ele>11</ele>
        <time>2016-12-15T19:12:27Z</time>
      </trkpt>
      <trkpt lat="47.21569" lon="-1.54537">
        <ele>11</ele>
        <time>2016-12-15T19:12:30Z</time>
      </trkpt>
      <trkpt lat="47.21565" lon="-1.54526">
        <ele>11</ele>
        <time>2016-12-15T19:12:33Z</time>
      </trkpt>
      <trkpt lat="47.21564" lon="-1.54519">
        <ele>11</ele>
        <time>2016-12-15T19:12:36Z</time>
      </trkpt>
      <trkpt lat="47.21568" lon="-1.5452">
        <ele>11</ele>
        <time>2016-12-15T19:12:39Z</time>
      </trkpt>
      <trkpt lat="47.2157" lon="-1.54525">
        <ele>11</ele>
        <time>2016-12-15T19:12:42Z</time>
      </trkpt>
      <trkpt lat="47.21572" lon="-1.54535">
        <ele>11</ele>
        <time>2016-12-15T19:12:45Z</time>
      </trkpt>
      <trkpt lat="47.21575" lon="-1.54544">
        <ele>11</ele>
        <time>2016-12-15T19:12:48Z</time>
      </trkpt>
      <trkpt lat="47.21578" lon="-1.54548">
        <ele>10</ele>
        <time>2016-12-15T19:12:51Z</time>
      </trkpt>
      <trkpt lat="47.21578" lon="-1.54555">
        <ele>10</ele>
        <time>2016-12-15T19:12:54Z</time>
      </trkpt>
      <trkpt lat="47.21577" lon="-1.54563">
        <ele>10</ele>
        <time>2016-12-15T19:12:57Z</time>
      </trkpt>
      <trkpt lat="47.21581" lon="-1.54574">
        <ele>10</ele>
        <time>2016-12-15T19:13:00Z</time>
      </trkpt>
      <trkpt lat="47.21583" lon="-1.54593">
        <ele>9</ele>
        <time>2016-12-15T19:13:04Z</time>
      </trkpt>
      <trkpt lat="47.21581" lon="-1.54599">
        <ele>9</ele>
        <time>2016-12-15T19:13:07Z</time>
      </trkpt>
      <trkpt lat="47.21595" lon="-1.54624">
        <ele>8</ele>
        <time>2016-12-15T19:13:10Z</time>
      </trkpt>
      <trkpt lat="47.21602" lon="-1.54642">
        <ele>8</ele>
        <time>2016-12-15T19:13:13Z</time>
      </trkpt>
      <trkpt lat="47.21603" lon="-1.54659">
        <ele>9</ele>
        <time>2016-12-15T19:13:16Z</time>
      </trkpt>
      <trkpt lat="47.21605" lon="-1.54667">
        <ele>9</ele>
        <time>2016-12-15T19:13:19Z</time>
      </trkpt>
      <trkpt lat="47.21611" lon="-1.54672">
        <ele>9</ele>
        <time>2016-12-15T19:13:22Z</time>
      </trkpt>
      <trkpt lat="47.21618" lon="-1.54671">
        <ele>9</ele>
        <time>2016-12-15T19:13:25Z</time>
      </trkpt>
      <trkpt lat="47.21624" lon="-1.54671">
        <ele>9</ele>
        <time>2016-12-15T19:13:28Z</time>
      </trkpt>
      <trkpt lat="47.21632" lon="-1.54674">
        <ele>9</ele>
        <time>2016-12-15T19:13:31Z</time>
      </trkpt>
      <trkpt lat="47.21642" lon="-1.54676">
        <ele>9</ele>
        <time>2016-12-15T19:13:34Z</time>
      </trkpt>
      <trkpt lat="47.21652" lon="-1.54676">
        <ele>9</ele>
        <time>2016-12-15T19:13:37Z</time>
      </trkpt>
      <trkpt lat="47.21661" lon="-1.54677">
        <ele>9</ele>
        <time>2016-12-15T19:13:40Z</time>
      </trkpt>
      <trkpt lat="47.21666" lon="-1.54677">
        <ele>10</ele>
        <time>2016-12-15T19:13:43Z</time>
      </trkpt>
      <trkpt lat="47.21668" lon="-1.5467">
        <ele>10</ele>
        <time>2016-12-15T19:13:46Z</time>
      </trkpt>
      <trkpt lat="47.21669" lon="-1.54659">
        <ele>10</ele>
        <time>2016-12-15T19:13:49Z</time>
      </trkpt>
      <trkpt lat="47.21671" lon="-1.54655">
        <ele>11</ele>
        <time>2016-12-15T19:13:52Z</time>
      </trkpt>
      <trkpt lat="47.21673" lon="-1.54649">
        <ele>11</ele>
        <time>2016-12-15T19:13:55Z</time>
      </trkpt>
      <trkpt lat="47.21678" lon="-1.5464">
        <ele>11</ele>
        <time>2016-12-15T19:13:58Z</time>
      </trkpt>
      <trkpt lat="47.21683" lon="-1.54629">
        <ele>11</ele>
        <time>2016-12-15T19:14:01Z</time>
      </trkpt>
      <trkpt lat="47.21687" lon="-1.54617">
        <ele>11</ele>
        <time>2016-12-15T19:14:04Z</time>
      </trkpt>
      <trkpt lat="47.21689" lon="-1.54602">
        <ele>11</ele>
        <time>2016-12-15T19:14:07Z</time>
      </trkpt>
      <trkpt lat="47.21692" lon="-1.54586">
        <ele>11</ele>
        <time>2016-12-15T19:14:10Z</time>
      </trkpt>
      <trkpt lat="47.21698" lon="-1.5457">
        <ele>10</ele>
        <time>2016-12-15T19:14:13Z</time>
      </trkpt>
      <trkpt lat="47.21705" lon="-1.54556">
        <ele>10</ele>
        <time>2016-12-15T19:14:16Z</time>
      </trkpt>
      <trkpt lat="47.21711" lon="-1.54541">
        <ele>9</ele>
        <time>2016-12-15T19:14:19Z</time>
      </trkpt>
      <trkpt lat="47.21717" lon="-1.54529">
        <ele>9</ele>
        <time>2016-12-15T19:14:22Z</time>
      </trkpt>
      <trkpt lat="47.2172" lon="-1.54518">
        <ele>10</ele>
        <time>2016-12-15T19:14:25Z</time>
      </trkpt>
      <trkpt lat="47.2172" lon="-1.54515">
        <ele>10</ele>
        <time>2016-12-15T19:14:28Z</time>
      </trkpt>
      <trkpt lat="47.21723" lon="-1.54514">
        <ele>10</ele>
        <time>2016-12-15T19:14:30Z</time>
      </trkpt>
    </trkseg>
  </trk>
</gpx>